KGNT/GNT METAR and TAF weather

Enter ICAO airport designator
Station Type Date Time Source
KGNT METAR 2021/09/25 11:35 UTC NOAA

KGNT 251135Z AUTO 33003KT 10SM CLR 06/00 A3031 RMK AO2 T00600000


Station Type Date Time Source
KGNT Decoded METAR 2021/09/25 11:35 UTC NOAA

GRANTS-MILAN MUNICIPAL AIRPORT , NM, United States (KGNT) 35-10N 107-54W 1987M
Sep 25, 2021 - 07:35 AM EDT / 2021.09.25 1135 UTC
Wind: from the NNW (330 degrees) at 3 MPH (3 KT):0
Visibility: 10 mile(s):0
Sky conditions: clear
Temperature: 42.8 F (6.0 C)
Dew Point: 32.0 F (0.0 C)
Relative Humidity: 65%
Pressure (altimeter): 30.31 in. Hg (1026 hPa)
ob: KGNT 251135Z AUTO 33003KT 10SM CLR 06/00 A3031 RMK AO2 T00600000
cycle: 11

Station Type Date Time Source
KGNT TAF UTC NOAA

Error!

Example: see airport list